createdAt,value
2019-01-05T00:00:36.852Z,97069.01
2019-01-05T00:03:31.499Z,97050.61
2019-01-05T00:06:21.268Z,97056.72
2019-01-05T00:09:17.235Z,97081.95
2019-01-05T00:12:22.162Z,97049.44
2019-01-05T00:15:24.314Z,97047.88
2019-01-05T00:18:18.274Z,97056.20
2019-01-05T00:20:59.254Z,97046.97
2019-01-05T00:23:45.958Z,97033.81
2019-01-05T00:26:40.760Z,97035.75
2019-01-05T00:29:31.374Z,97051.59
2019-01-05T00:32:49.752Z,97044.86
2019-01-05T00:35:49.821Z,97046.34
2019-01-05T00:38:45.671Z,97034.88
2019-01-05T00:41:36.236Z,97041.88
2019-01-05T00:44:24.685Z,97035.53
2019-01-05T00:47:13.237Z,97023.73
2019-01-05T00:50:01.110Z,97021.36
2019-01-05T00:52:49.796Z,97019.13
2019-01-05T00:55:45.494Z,97017.15
2019-01-05T00:58:49.304Z,97019.41
2019-01-05T01:01:41.902Z,97027.09
2019-01-05T01:04:30.676Z,97023.73
2019-01-05T01:07:19.287Z,97024.52
2019-01-05T01:10:07.906Z,97026.45
2019-01-05T01:12:56.684Z,97038.32
2019-01-05T01:15:45.239Z,97036.95
2019-01-05T01:18:34.010Z,97033.95
2019-01-05T01:21:15.574Z,97022.79
2019-01-05T01:40:17.432Z,97015.59
2019-01-05T01:43:22.921Z,96999.61
2019-01-05T01:46:12.738Z,96998.04
2019-01-05T01:49:12.031Z,97000.84
2019-01-05T01:52:00.740Z,96994.95
2019-01-05T01:54:56.938Z,96996.94
2019-01-05T01:57:55.689Z,96990.25
2019-01-05T02:00:48.429Z,96982.87
2019-01-05T02:03:37.159Z,96967.17
2019-01-05T02:06:32.800Z,96968.78
2019-01-05T02:09:28.798Z,96966.87
2019-01-05T02:12:15.846Z,96962.93
2019-01-05T02:15:15.415Z,96962.06
2019-01-05T02:18:34.306Z,96962.34
2019-01-05T02:21:51.236Z,96962.73
2019-01-05T02:25:44.797Z,96960.73
2019-01-05T02:29:26.828Z,96962.44
2019-01-05T02:33:19.317Z,96960.37
2019-01-05T02:36:39.988Z,96954.39
2019-01-05T02:40:04.178Z,96948.59
2019-01-05T02:43:27.554Z,96950.52
2019-01-05T02:47:06.297Z,96943.27
2019-01-05T02:50:37.623Z,96934.55
2019-01-05T02:54:11.710Z,96929.66
2019-01-05T02:57:42.385Z,96922.62
2019-01-05T03:01:08.459Z,96924.75
2019-01-05T03:04:28.184Z,96925.70
2019-01-05T03:07:57.831Z,96914.00
2019-01-05T03:11:23.643Z,96908.05
2019-01-05T03:14:42.284Z,96895.09
2019-01-05T03:17:53.768Z,96887.59
2019-01-05T03:21:32.897Z,96879.02
2019-01-05T03:25:21.264Z,96870.92
2019-01-05T03:29:00.538Z,96855.41
2019-01-05T03:32:22.313Z,96857.91
2019-01-05T03:35:49.986Z,96851.97
2019-01-05T03:39:20.085Z,96851.97
2019-01-05T03:42:58.533Z,96851.58
2019-01-05T03:46:53.555Z,96848.29
2019-01-05T03:50:21.952Z,96848.84
2019-01-05T03:54:21.705Z,96844.35
2019-01-05T03:57:51.067Z,96835.73
2019-01-05T04:01:35.835Z,96836.96
2019-01-05T04:05:04.306Z,96827.02
2019-01-05T04:08:30.532Z,96832.17
2019-01-05T04:12:10.754Z,96819.34
2019-01-05T04:15:48.325Z,96827.23
2019-01-05T04:19:16.964Z,96809.66
2019-01-05T04:22:45.721Z,96805.05
2019-01-05T04:26:25.729Z,96792.35
2019-01-05T04:30:02.543Z,96804.84
2019-01-05T04:33:18.123Z,96789.94
2019-01-05T04:36:40.384Z,96769.84
2019-01-05T04:40:15.125Z,96758.17
2019-01-05T04:43:43.867Z,96729.69
2019-01-05T04:47:07.253Z,96727.83
2019-01-05T04:50:52.006Z,96734.22
2019-01-05T04:54:27.586Z,96730.78
2019-01-05T04:58:06.160Z,96721.84
2019-01-05T05:01:35.079Z,96703.13
2019-01-05T05:04:51.480Z,96711.13
2019-01-05T05:08:09.874Z,96685.80
2019-01-05T05:11:43.615Z,96676.68
2019-01-05T05:15:11.567Z,96669.97
2019-01-05T05:18:30.527Z,96682.28
2019-01-05T05:22:05.875Z,96690.72
2019-01-05T05:25:41.440Z,96703.50
2019-01-05T05:29:10.584Z,96686.06
2019-01-05T05:32:19.956Z,96701.35
2019-01-05T05:35:35.121Z,96700.72
2019-01-05T05:39:13.189Z,96688.58
2019-01-05T05:42:47.967Z,96696.89
2019-01-05T05:46:36.880Z,96706.01
2019-01-05T05:49:41.816Z,96706.69
2019-01-05T05:53:18.372Z,96701.48
2019-01-05T05:56:50.647Z,96696.06
2019-01-05T06:00:36.181Z,96686.84
2019-01-05T06:04:24.205Z,96687.06
2019-01-05T06:07:58.433Z,96684.61
2019-01-05T06:11:34.303Z,96697.79
2019-01-05T06:15:14.631Z,96699.12
2019-01-05T06:18:49.767Z,96706.01
2019-01-05T06:22:45.472Z,96714.55
2019-01-05T06:26:07.731Z,96692.17
2019-01-05T06:29:44.731Z,96698.11
2019-01-05T06:33:12.751Z,96695.52
2019-01-05T06:36:44.987Z,96700.58
2019-01-05T06:40:13.159Z,96698.34
2019-01-05T06:43:25.307Z,96703.00
2019-01-05T06:47:07.256Z,96673.86
2019-01-05T06:50:07.087Z,96673.46
2019-01-05T06:53:36.688Z,96664.25
2019-01-05T06:57:23.086Z,96664.75
2019-01-05T07:01:01.074Z,96669.34
2019-01-05T07:04:17.836Z,96658.55
2019-01-05T07:08:12.215Z,96645.88
2019-01-05T07:11:56.132Z,96647.84
2019-01-05T07:15:28.437Z,96651.81
2019-01-05T07:18:43.930Z,96653.22
2019-01-05T07:22:32.237Z,96651.94
2019-01-05T07:25:58.403Z,96644.41
2019-01-05T07:29:24.216Z,96658.15
2019-01-05T07:32:44.752Z,96646.78
2019-01-05T07:36:26.075Z,96663.85
2019-01-05T07:40:03.422Z,96650.42
2019-01-05T07:43:43.703Z,96663.25
2019-01-05T07:47:31.734Z,96641.50
2019-01-05T07:51:10.882Z,96628.26
2019-01-05T07:54:52.671Z,96646.34
2019-01-05T07:58:18.281Z,96631.46
2019-01-05T08:01:45.838Z,96620.81
2019-01-05T08:05:17.909Z,96614.84
2019-01-05T08:08:53.600Z,96622.73
2019-01-05T08:12:11.308Z,96632.96
2019-01-05T08:16:06.236Z,96625.11
2019-01-05T08:19:35.349Z,96618.91
2019-01-05T08:23:05.222Z,96612.19
2019-01-05T08:26:24.271Z,96611.94
2019-01-05T08:29:54.710Z,96657.38
2019-01-05T08:33:52.316Z,96604.02
2019-01-05T08:37:52.805Z,96624.36
2019-01-05T08:41:27.160Z,96624.77
2019-01-05T08:45:06.050Z,96623.48
2019-01-05T08:48:21.299Z,96621.97
2019-01-05T08:51:53.381Z,96617.89
2019-01-05T08:55:23.353Z,96607.41
2019-01-05T08:58:45.712Z,96627.95
2019-01-05T09:02:36.214Z,96598.00
2019-01-05T09:06:00.999Z,96620.94
2019-01-05T09:09:49.475Z,96610.77
2019-01-05T09:13:36.360Z,96597.48
2019-01-05T09:17:04.335Z,96595.59
2019-01-05T09:20:24.669Z,96599.23
2019-01-05T09:23:51.812Z,96615.59
2019-01-05T09:27:35.282Z,96624.28
2019-01-05T09:30:56.557Z,96656.34
2019-01-05T09:34:39.404Z,96636.61
2019-01-05T09:38:05.418Z,96628.14
2019-01-05T09:41:29.021Z,96643.56
2019-01-05T09:44:58.805Z,96612.97
2019-01-05T09:48:29.674Z,96605.56
2019-01-05T09:52:37.442Z,96589.45
2019-01-05T09:56:07.569Z,96578.81
2019-01-05T09:59:34.784Z,96576.26
2019-01-05T10:03:20.278Z,96567.31
2019-01-05T10:06:35.012Z,96590.07
2019-01-05T10:10:17.416Z,96600.63
2019-01-05T10:13:51.765Z,96613.81
2019-01-05T10:17:33.885Z,96590.91
2019-01-05T10:21:07.678Z,96593.78
2019-01-05T10:24:28.208Z,96603.58
2019-01-05T10:27:52.582Z,96593.98
2019-01-05T10:31:26.591Z,96606.41
2019-01-05T10:35:02.357Z,96589.07
2019-01-05T10:38:30.113Z,96573.80
2019-01-05T10:41:43.437Z,96570.67
2019-01-05T10:45:23.328Z,96573.09
2019-01-05T10:48:56.809Z,96572.77
2019-01-05T10:52:41.578Z,96566.44
2019-01-05T10:56:04.408Z,96559.73
2019-01-05T10:59:27.171Z,96558.08
2019-01-05T11:03:06.270Z,96541.98
2019-01-05T11:06:40.031Z,96523.42
2019-01-05T11:10:09.893Z,96552.06
2019-01-05T11:13:50.708Z,96526.69
2019-01-05T11:17:09.291Z,96533.84
2019-01-05T11:20:43.976Z,96537.38
2019-01-05T11:23:58.771Z,96531.03
2019-01-05T11:27:24.571Z,96522.14
2019-01-05T11:30:58.745Z,96513.44
2019-01-05T11:34:18.938Z,96526.37
2019-01-05T11:37:58.810Z,96517.92
2019-01-05T11:41:56.988Z,96509.28
2019-01-05T11:45:01.977Z,96510.19
2019-01-05T11:48:24.296Z,96501.55
2019-01-05T11:52:02.841Z,96490.90
2019-01-05T11:55:28.732Z,96505.47
2019-01-05T11:59:16.798Z,96498.48
2019-01-05T12:02:57.499Z,96509.27
2019-01-05T12:06:29.625Z,96494.91
2019-01-05T12:09:50.604Z,96487.67
2019-01-05T12:13:19.585Z,96494.55
2019-01-05T12:16:51.963Z,96481.77
2019-01-05T12:20:33.387Z,96473.18
2019-01-05T12:23:50.374Z,96476.85
2019-01-05T12:27:56.420Z,96480.91
2019-01-05T12:31:35.078Z,96497.70
2019-01-05T12:35:29.705Z,96468.42
2019-01-05T12:39:14.425Z,96502.47
2019-01-05T12:42:35.645Z,96474.59
2019-01-05T12:46:00.794Z,96468.81
2019-01-05T12:49:41.334Z,96480.73
2019-01-05T12:52:55.712Z,96483.53
2019-01-05T12:56:38.780Z,96480.52
2019-01-05T12:59:57.968Z,96486.22
2019-01-05T13:03:29.800Z,96487.13
2019-01-05T13:07:05.675Z,96484.70
2019-01-05T13:10:53.785Z,96491.95
2019-01-05T13:14:27.878Z,96476.86
2019-01-05T13:17:57.781Z,96488.19
2019-01-05T13:21:33.712Z,96493.38
2019-01-05T13:24:57.218Z,96504.30
2019-01-05T13:28:34.940Z,96495.41
2019-01-05T13:31:52.626Z,96516.42
2019-01-05T13:35:15.439Z,96492.88
2019-01-05T13:38:58.419Z,96506.25
2019-01-05T13:42:26.319Z,96507.30
2019-01-05T13:45:55.765Z,96507.20
2019-01-05T13:49:41.075Z,96505.96
2019-01-05T13:53:04.301Z,96541.70
2019-01-05T13:56:14.256Z,96509.82
2019-01-05T13:59:02.792Z,96519.84
2019-01-05T14:01:55.822Z,96520.16
2019-01-05T14:04:55.053Z,96524.70
2019-01-05T14:07:46.675Z,96518.81
2019-01-05T14:10:42.271Z,96534.38
2019-01-05T14:13:30.989Z,96538.31
2019-01-05T14:16:19.492Z,96521.64
2019-01-05T14:19:08.045Z,96524.96
2019-01-05T14:21:56.806Z,96528.66
2019-01-05T14:24:45.683Z,96520.16
2019-01-05T14:27:46.916Z,96527.50
2019-01-05T14:30:38.857Z,96523.81
2019-01-05T14:33:39.993Z,96525.62
2019-01-05T14:36:18.208Z,96521.50
2019-01-05T14:39:16.603Z,96518.22
2019-01-05T14:42:03.816Z,96514.31
2019-01-05T14:44:52.104Z,96515.34
2019-01-05T14:47:40.268Z,96497.16
2019-01-05T14:50:28.262Z,96503.28
2019-01-05T14:53:26.300Z,96492.95
2019-01-05T14:56:14.106Z,96494.14
2019-01-05T14:59:02.362Z,96491.19
2019-01-05T15:02:06.959Z,96494.59
2019-01-05T15:05:05.118Z,96508.49
2019-01-05T15:07:46.505Z,96519.25
2019-01-05T15:10:44.851Z,96517.52
2019-01-05T15:13:40.027Z,96525.06
2019-01-05T15:16:32.383Z,96524.80
2019-01-05T15:19:20.927Z,96522.54
2019-01-05T15:22:19.266Z,96516.72
2019-01-05T15:25:14.683Z,96510.90
2019-01-05T15:28:03.003Z,96517.54
2019-01-05T15:30:52.250Z,96505.20
2019-01-05T15:33:53.653Z,96525.98
2019-01-05T15:36:48.827Z,96526.19
2019-01-05T15:39:36.772Z,96530.77
2019-01-05T15:42:25.720Z,96528.05
2019-01-05T15:45:14.195Z,96540.31
2019-01-05T15:48:00.444Z,96533.14
2019-01-05T15:50:55.544Z,96545.37
2019-01-05T15:53:44.803Z,96545.94
2019-01-05T15:56:37.122Z,96545.88
2019-01-05T15:59:25.291Z,96546.09
2019-01-05T16:02:08.052Z,96549.52
2019-01-05T16:04:56.273Z,96562.31
2019-01-05T16:07:44.229Z,96564.84
2019-01-05T16:10:39.674Z,96557.16
2019-01-05T16:13:27.843Z,96563.02
2019-01-05T16:16:19.779Z,96559.69
2019-01-05T16:19:08.065Z,96559.23
2019-01-05T16:22:12.726Z,96562.44
2019-01-05T16:24:57.964Z,96569.78
2019-01-05T16:27:50.073Z,96574.33
2019-01-05T16:30:38.072Z,96575.27
2019-01-05T16:33:39.930Z,96578.29
2019-01-05T16:36:44.605Z,96575.09
2019-01-05T16:39:33.870Z,96580.54
2019-01-05T16:42:23.146Z,96583.05
2019-01-05T16:45:15.479Z,96581.55
2019-01-05T16:48:07.575Z,96580.54
2019-01-05T16:51:08.804Z,96591.40
2019-01-05T16:54:10.214Z,96584.11
2019-01-05T16:56:57.847Z,96588.66
2019-01-05T16:59:47.119Z,96590.18
2019-01-05T17:02:29.616Z,96592.52
2019-01-05T17:05:25.019Z,96582.31
2019-01-05T17:08:29.688Z,96585.97
2019-01-05T17:11:25.067Z,96588.78
2019-01-05T17:14:23.411Z,96587.70
2019-01-05T17:17:21.997Z,96595.78
2019-01-05T17:20:16.642Z,96588.73
2019-01-05T17:23:09.497Z,96586.27
2019-01-05T17:26:05.032Z,96588.64
2019-01-05T17:28:54.297Z,96596.94
2019-01-05T17:31:43.534Z,96598.98
2019-01-05T17:34:31.666Z,96598.65
2019-01-05T17:37:19.643Z,96596.61
2019-01-05T17:40:18.830Z,96604.78
2019-01-05T17:43:20.503Z,96607.34
2019-01-05T17:46:12.838Z,96606.83
2019-01-05T17:49:03.617Z,96606.81
2019-01-05T17:51:56.691Z,96604.50
2019-01-05T17:54:48.751Z,96611.15
2019-01-05T17:57:38.030Z,96607.72
2019-01-05T18:00:33.457Z,96615.05
2019-01-05T18:03:20.319Z,96624.56
2019-01-05T18:06:08.486Z,96619.20
2019-01-05T18:08:56.780Z,96615.55
2019-01-05T18:11:55.357Z,96630.29
2019-01-05T18:14:54.404Z,96633.62
2019-01-05T18:17:46.667Z,96633.47
2019-01-05T18:20:34.647Z,96633.09
2019-01-05T18:23:19.935Z,96624.22
2019-01-05T18:26:09.835Z,96630.45
2019-01-05T18:28:59.100Z,96630.20
2019-01-05T18:31:56.031Z,96624.30
2019-01-05T18:34:45.281Z,96614.26
2019-01-05T18:37:40.595Z,96617.09
2019-01-05T18:40:28.579Z,96623.98
2019-01-05T18:43:32.924Z,96631.87
2019-01-05T18:46:22.815Z,96624.81
2019-01-05T18:49:07.647Z,96621.33
2019-01-05T18:52:12.015Z,96615.81
2019-01-05T18:54:59.806Z,96618.62
2019-01-05T18:58:01.124Z,96608.95
2019-01-05T19:00:49.341Z,96619.91
2019-01-05T19:03:44.977Z,96623.76
2019-01-05T19:06:33.249Z,96630.05
2019-01-05T19:09:21.402Z,96599.64
2019-01-05T19:12:09.605Z,96625.78
2019-01-05T19:14:57.713Z,96629.63
2019-01-05T19:17:50.441Z,96637.52
2019-01-05T19:20:39.650Z,96625.08
2019-01-05T19:23:27.044Z,96630.08
2019-01-05T19:26:08.566Z,96634.66
2019-01-05T19:28:59.909Z,96634.63
2019-01-05T19:31:58.223Z,96635.57
2019-01-05T19:35:04.558Z,96639.75
2019-01-05T19:37:56.653Z,96642.48
2019-01-05T19:40:57.915Z,96642.84
2019-01-05T19:43:49.250Z,96647.30
2019-01-05T19:46:44.652Z,96639.41
2019-01-05T19:49:32.586Z,96635.72
2019-01-05T19:52:40.111Z,96627.84
2019-01-05T19:55:28.305Z,96644.02
2019-01-05T19:58:16.423Z,96639.10
2019-01-05T20:01:08.475Z,96626.88
2019-01-05T20:04:15.955Z,96625.78
2019-01-05T20:07:03.911Z,96629.11
2019-01-05T20:09:53.190Z,96638.91
2019-01-05T20:12:41.304Z,96626.97
2019-01-05T20:15:33.078Z,96639.62
2019-01-05T20:18:17.322Z,96621.59
2019-01-05T20:21:04.876Z,96633.16
2019-01-05T20:23:54.128Z,96621.59
2019-01-05T20:26:49.507Z,96615.41
2019-01-05T20:29:44.796Z,96620.56
2019-01-05T20:32:42.303Z,96624.77
2019-01-05T20:35:30.306Z,96623.51
2019-01-05T20:38:18.653Z,96620.23
2019-01-05T20:41:06.623Z,96614.98
2019-01-05T20:44:01.995Z,96617.42
2019-01-05T20:46:55.805Z,96617.23
2019-01-05T20:49:45.105Z,96616.59
2019-01-05T20:52:33.267Z,96615.20
2019-01-05T20:55:28.640Z,96621.14
2019-01-05T20:58:23.790Z,96621.08
2019-01-05T21:01:22.148Z,96626.47
2019-01-05T21:04:23.564Z,96609.10
2019-01-05T21:07:08.551Z,96599.74
2019-01-05T21:09:57.799Z,96614.53
2019-01-05T21:12:47.124Z,96617.34
2019-01-05T21:15:25.024Z,96611.20
2019-01-05T21:18:15.080Z,96619.44
2019-01-05T21:21:03.251Z,96618.77
2019-01-05T21:23:55.635Z,96609.80
2019-01-05T21:26:53.758Z,96615.96
2019-01-05T21:29:43.039Z,96613.19
2019-01-05T21:32:35.332Z,96602.95
2019-01-05T21:35:37.591Z,96605.56
2019-01-05T21:38:25.563Z,96599.41
2019-01-05T21:41:14.420Z,96611.70
2019-01-05T21:44:03.873Z,96611.45
2019-01-05T21:46:52.018Z,96611.95
2019-01-05T21:49:50.119Z,96613.40
2019-01-05T21:52:45.354Z,96606.02
2019-01-05T21:55:33.762Z,96611.77
2019-01-05T21:58:30.603Z,96614.84
2019-01-05T22:01:15.961Z,96607.92
2019-01-05T22:04:04.150Z,96613.31
2019-01-05T22:06:52.365Z,96611.47
2019-01-05T22:09:40.607Z,96610.69
2019-01-05T22:12:28.912Z,96613.65
2019-01-05T22:15:12.709Z,96614.08
2019-01-05T22:18:00.680Z,96609.86
2019-01-05T22:20:45.920Z,96609.59
2019-01-05T22:23:38.208Z,96615.69
2019-01-05T22:26:39.663Z,96609.14
2019-01-05T22:29:29.674Z,96619.08
2019-01-05T22:32:17.923Z,96620.55
2019-01-05T22:35:13.408Z,96621.22
2019-01-05T22:38:20.978Z,96617.47
2019-01-05T22:41:09.176Z,96618.62
2019-01-05T22:43:55.496Z,96619.44
2019-01-05T22:46:46.057Z,96617.03
2019-01-05T22:49:34.360Z,96623.95
2019-01-05T22:52:23.635Z,96611.24
2019-01-05T22:55:13.021Z,96619.08
2019-01-05T22:58:02.142Z,96619.08
2019-01-05T23:00:53.135Z,96617.98
2019-01-05T23:03:54.722Z,96622.61
2019-01-05T23:06:59.427Z,96623.80
2019-01-05T23:09:47.654Z,96619.20
2019-01-05T23:12:49.085Z,96620.16
2019-01-05T23:15:41.132Z,96619.08
2019-01-05T23:18:31.657Z,96619.17
2019-01-05T23:21:20.931Z,96614.26
2019-01-05T23:24:16.248Z,96618.34
2019-01-05T23:27:08.343Z,96615.84
2019-01-05T23:30:06.897Z,96613.98
2019-01-05T23:32:55.136Z,96618.99
2019-01-05T23:35:45.593Z,96621.92
2019-01-05T23:38:32.792Z,96621.03
2019-01-05T23:41:22.046Z,96619.63
2019-01-05T23:44:17.435Z,96612.46
2019-01-05T23:47:09.545Z,96606.19
2019-01-05T23:50:04.940Z,96623.78
2019-01-05T23:52:52.918Z,96632.83
2019-01-05T23:55:40.819Z,96612.50
2019-01-05T23:58:42.875Z,96618.02
